sensor_id;sensor_type;location;lat;lon;timestamp;P1;durP1;ratioP1;P2;durP2;ratioP2
8716;SDS011;4395;48.554;8.820;2023-02-03T00:01:52;4.82;;;1.65;;
8716;SDS011;4395;48.554;8.820;2023-02-03T00:03:55;1.90;;;1.55;;
8716;SDS011;4395;48.554;8.820;2023-02-03T00:05:58;1.25;;;1.15;;
8716;SDS011;4395;48.554;8.820;2023-02-03T00:08:02;1.35;;;1.25;;
8716;SDS011;4395;48.554;8.820;2023-02-03T00:10:05;1.40;;;1.30;;
8716;SDS011;4395;48.554;8.820;2023-02-03T00:12:09;1.23;;;1.13;;
8716;SDS011;4395;48.554;8.820;2023-02-03T00:14:13;1.42;;;1.33;;
8716;SDS011;4395;48.554;8.820;2023-02-03T00:16:16;1.50;;;1.17;;
8716;SDS011;4395;48.554;8.820;2023-02-03T00:18:19;1.30;;;1.20;;
8716;SDS011;4395;48.554;8.820;2023-02-03T00:20:21;1.52;;;1.20;;
8716;SDS011;4395;48.554;8.820;2023-02-03T00:22:25;1.42;;;1.17;;
8716;SDS011;4395;48.554;8.820;2023-02-03T00:24:28;1.48;;;1.20;;
8716;SDS011;4395;48.554;8.820;2023-02-03T00:26:30;1.35;;;1.10;;
8716;SDS011;4395;48.554;8.820;2023-02-03T00:28:33;1.45;;;0.90;;
8716;SDS011;4395;48.554;8.820;2023-02-03T00:30:37;1.45;;;1.20;;
8716;SDS011;4395;48.554;8.820;2023-02-03T00:32:40;1.38;;;1.27;;
8716;SDS011;4395;48.554;8.820;2023-02-03T00:34:45;2.55;;;1.20;;
8716;SDS011;4395;48.554;8.820;2023-02-03T00:36:47;2.78;;;1.75;;
8716;SDS011;4395;48.554;8.820;2023-02-03T00:38:50;1.65;;;1.55;;
8716;SDS011;4395;48.554;8.820;2023-02-03T00:40:53;1.30;;;0.90;;
8716;SDS011;4395;48.554;8.820;2023-02-03T00:42:56;2.53;;;0.93;;
8716;SDS011;4395;48.554;8.820;2023-02-03T00:44:59;1.20;;;1.10;;
8716;SDS011;4395;48.554;8.820;2023-02-03T00:47:03;1.75;;;1.60;;
8716;SDS011;4395;48.554;8.820;2023-02-03T00:49:06;2.40;;;1.60;;
8716;SDS011;4395;48.554;8.820;2023-02-03T00:51:09;2.17;;;1.58;;
8716;SDS011;4395;48.554;8.820;2023-02-03T00:53:12;1.67;;;1.35;;
8716;SDS011;4395;48.554;8.820;2023-02-03T00:55:15;1.35;;;1.25;;
8716;SDS011;4395;48.554;8.820;2023-02-03T00:57:18;1.58;;;1.20;;
8716;SDS011;4395;48.554;8.820;2023-02-03T00:59:21;1.25;;;1.05;;
8716;SDS011;4395;48.554;8.820;2023-02-03T01:01:23;1.98;;;1.52;;
8716;SDS011;4395;48.554;8.820;2023-02-03T01:03:28;1.90;;;1.50;;
8716;SDS011;4395;48.554;8.820;2023-02-03T01:05:31;2.50;;;1.45;;
8716;SDS011;4395;48.554;8.820;2023-02-03T01:07:34;2.78;;;1.40;;
8716;SDS011;4395;48.554;8.820;2023-02-03T01:09:37;1.45;;;1.35;;
8716;SDS011;4395;48.554;8.820;2023-02-03T01:11:40;2.25;;;1.60;;
8716;SDS011;4395;48.554;8.820;2023-02-03T01:13:43;1.48;;;1.27;;
8716;SDS011;4395;48.554;8.820;2023-02-03T01:15:46;2.08;;;1.90;;
8716;SDS011;4395;48.554;8.820;2023-02-03T01:17:49;2.30;;;1.38;;
8716;SDS011;4395;48.554;8.820;2023-02-03T01:19:53;1.83;;;1.42;;
8716;SDS011;4395;48.554;8.820;2023-02-03T01:21:56;1.50;;;1.33;;
8716;SDS011;4395;48.554;8.820;2023-02-03T01:23:59;2.88;;;1.90;;
8716;SDS011;4395;48.554;8.820;2023-02-03T01:26:02;1.67;;;1.50;;
8716;SDS011;4395;48.554;8.820;2023-02-03T01:28:05;2.72;;;1.85;;
8716;SDS011;4395;48.554;8.820;2023-02-03T01:30:09;1.83;;;1.65;;
8716;SDS011;4395;48.554;8.820;2023-02-03T01:32:12;1.90;;;1.70;;
8716;SDS011;4395;48.554;8.820;2023-02-03T01:34:15;1.50;;;1.40;;
8716;SDS011;4395;48.554;8.820;2023-02-03T01:36:21;2.35;;;2.00;;
8716;SDS011;4395;48.554;8.820;2023-02-03T01:38:25;3.38;;;2.50;;
8716;SDS011;4395;48.554;8.820;2023-02-03T01:40:28;2.08;;;1.88;;
8716;SDS011;4395;48.554;8.820;2023-02-03T01:42:31;3.00;;;2.53;;
8716;SDS011;4395;48.554;8.820;2023-02-03T01:44:42;4.85;;;2.63;;
8716;SDS011;4395;48.554;8.820;2023-02-03T01:46:47;3.97;;;2.78;;
8716;SDS011;4395;48.554;8.820;2023-02-03T01:48:52;3.63;;;2.60;;
8716;SDS011;4395;48.554;8.820;2023-02-03T01:50:58;3.45;;;2.58;;
8716;SDS011;4395;48.554;8.820;2023-02-03T01:53:06;3.15;;;2.55;;
8716;SDS011;4395;48.554;8.820;2023-02-03T01:55:13;3.33;;;2.28;;
8716;SDS011;4395;48.554;8.820;2023-02-03T01:57:22;2.60;;;2.20;;
8716;SDS011;4395;48.554;8.820;2023-02-03T01:59:28;2.58;;;2.38;;
8716;SDS011;4395;48.554;8.820;2023-02-03T02:01:33;4.25;;;2.88;;
8716;SDS011;4395;48.554;8.820;2023-02-03T02:03:38;2.45;;;2.15;;
8716;SDS011;4395;48.554;8.820;2023-02-03T02:05:46;2.88;;;2.28;;
8716;SDS011;4395;48.554;8.820;2023-02-03T02:07:51;4.32;;;2.58;;
8716;SDS011;4395;48.554;8.820;2023-02-03T02:09:56;3.40;;;1.95;;
8716;SDS011;4395;48.554;8.820;2023-02-03T02:11:59;1.75;;;1.65;;
8716;SDS011;4395;48.554;8.820;2023-02-03T02:14:02;2.47;;;1.70;;
8716;SDS011;4395;48.554;8.820;2023-02-03T02:16:09;2.42;;;1.60;;
8716;SDS011;4395;48.554;8.820;2023-02-03T02:18:19;1.90;;;1.80;;
8716;SDS011;4395;48.554;8.820;2023-02-03T02:20:47;2.58;;;2.38;;
8716;SDS011;4395;48.554;8.820;2023-02-03T02:25:58;1.88;;;1.40;;
8716;SDS011;4395;48.554;8.820;2023-02-03T02:30:53;1.48;;;1.38;;
8716;SDS011;4395;48.554;8.820;2023-02-03T02:33:13;3.20;;;1.70;;
8716;SDS011;4395;48.554;8.820;2023-02-03T02:35:26;2.65;;;1.80;;
8716;SDS011;4395;48.554;8.820;2023-02-03T02:37:43;1.83;;;1.73;;
8716;SDS011;4395;48.554;8.820;2023-02-03T02:39:52;1.52;;;1.42;;
8716;SDS011;4395;48.554;8.820;2023-02-03T02:42:03;3.33;;;1.70;;
8716;SDS011;4395;48.554;8.820;2023-02-03T02:44:11;4.00;;;2.00;;
8716;SDS011;4395;48.554;8.820;2023-02-03T02:46:18;2.13;;;1.90;;
8716;SDS011;4395;48.554;8.820;2023-02-03T02:48:28;2.20;;;1.50;;
8716;SDS011;4395;48.554;8.820;2023-02-03T02:50:37;2.40;;;2.20;;
8716;SDS011;4395;48.554;8.820;2023-02-03T02:52:43;3.05;;;1.67;;
8716;SDS011;4395;48.554;8.820;2023-02-03T02:54:48;2.67;;;1.75;;
8716;SDS011;4395;48.554;8.820;2023-02-03T02:56:58;2.03;;;1.50;;
8716;SDS011;4395;48.554;8.820;2023-02-03T02:59:05;1.95;;;1.50;;
8716;SDS011;4395;48.554;8.820;2023-02-03T03:01:09;1.98;;;1.58;;
8716;SDS011;4395;48.554;8.820;2023-02-03T03:03:12;2.83;;;1.20;;
8716;SDS011;4395;48.554;8.820;2023-02-03T03:05:18;3.05;;;1.50;;
8716;SDS011;4395;48.554;8.820;2023-02-03T03:07:24;1.67;;;1.20;;
8716;SDS011;4395;48.554;8.820;2023-02-03T03:09:29;1.13;;;0.80;;
8716;SDS011;4395;48.554;8.820;2023-02-03T03:11:38;1.38;;;1.17;;
8716;SDS011;4395;48.554;8.820;2023-02-03T03:13:46;1.20;;;0.88;;
8716;SDS011;4395;48.554;8.820;2023-02-03T03:15:52;1.90;;;1.00;;
8716;SDS011;4395;48.554;8.820;2023-02-03T03:17:58;0.65;;;0.65;;
8716;SDS011;4395;48.554;8.820;2023-02-03T03:20:06;0.55;;;0.55;;
8716;SDS011;4395;48.554;8.820;2023-02-03T03:22:14;0.98;;;0.93;;
8716;SDS011;4395;48.554;8.820;2023-02-03T03:24:20;0.70;;;0.70;;
8716;SDS011;4395;48.554;8.820;2023-02-03T03:26:29;1.02;;;0.60;;
8716;SDS011;4395;48.554;8.820;2023-02-03T03:28:39;0.95;;;0.60;;
8716;SDS011;4395;48.554;8.820;2023-02-03T03:30:47;0.50;;;0.50;;
8716;SDS011;4395;48.554;8.820;2023-02-03T03:32:49;0.90;;;0.60;;
8716;SDS011;4395;48.554;8.820;2023-02-03T03:34:53;1.00;;;0.80;;
8716;SDS011;4395;48.554;8.820;2023-02-03T03:36:58;0.80;;;0.80;;
8716;SDS011;4395;48.554;8.820;2023-02-03T03:39:10;1.63;;;0.98;;
8716;SDS011;4395;48.554;8.820;2023-02-03T03:41:18;1.38;;;0.75;;
8716;SDS011;4395;48.554;8.820;2023-02-03T03:43:30;0.90;;;0.90;;
8716;SDS011;4395;48.554;8.820;2023-02-03T03:45:37;0.60;;;0.60;;
8716;SDS011;4395;48.554;8.820;2023-02-03T03:47:46;0.90;;;0.90;;
8716;SDS011;4395;48.554;8.820;2023-02-03T03:49:53;1.02;;;1.00;;
8716;SDS011;4395;48.554;8.820;2023-02-03T03:52:00;1.35;;;0.65;;
8716;SDS011;4395;48.554;8.820;2023-02-03T03:54:06;0.60;;;0.60;;
8716;SDS011;4395;48.554;8.820;2023-02-03T03:56:14;1.40;;;0.70;;
8716;SDS011;4395;48.554;8.820;2023-02-03T03:58:21;0.60;;;0.60;;
8716;SDS011;4395;48.554;8.820;2023-02-03T04:00:29;3.97;;;1.08;;
8716;SDS011;4395;48.554;8.820;2023-02-03T04:02:36;1.20;;;0.90;;
8716;SDS011;4395;48.554;8.820;2023-02-03T04:04:41;1.00;;;0.88;;
8716;SDS011;4395;48.554;8.820;2023-02-03T04:06:46;1.80;;;0.70;;
8716;SDS011;4395;48.554;8.820;2023-02-03T04:08:48;0.90;;;0.65;;
8716;SDS011;4395;48.554;8.820;2023-02-03T04:10:51;0.55;;;0.50;;
8716;SDS011;4395;48.554;8.820;2023-02-03T04:12:55;0.60;;;0.60;;
8716;SDS011;4395;48.554;8.820;2023-02-03T04:14:57;1.08;;;0.75;;
8716;SDS011;4395;48.554;8.820;2023-02-03T04:17:00;0.63;;;0.63;;
8716;SDS011;4395;48.554;8.820;2023-02-03T04:19:03;0.63;;;0.63;;
8716;SDS011;4395;48.554;8.820;2023-02-03T04:21:08;1.08;;;1.08;;
8716;SDS011;4395;48.554;8.820;2023-02-03T04:23:11;0.98;;;0.73;;
8716;SDS011;4395;48.554;8.820;2023-02-03T04:25:14;0.55;;;0.55;;
8716;SDS011;4395;48.554;8.820;2023-02-03T04:27:17;0.90;;;0.90;;
8716;SDS011;4395;48.554;8.820;2023-02-03T04:29:21;1.35;;;0.88;;
8716;SDS011;4395;48.554;8.820;2023-02-03T04:31:24;0.60;;;0.60;;
8716;SDS011;4395;48.554;8.820;2023-02-03T04:33:26;0.85;;;0.75;;
8716;SDS011;4395;48.554;8.820;2023-02-03T04:35:29;0.77;;;0.77;;
8716;SDS011;4395;48.554;8.820;2023-02-03T04:37:32;1.42;;;0.88;;
8716;SDS011;4395;48.554;8.820;2023-02-03T04:39:35;1.17;;;0.82;;
8716;SDS011;4395;48.554;8.820;2023-02-03T04:41:37;1.83;;;0.85;;
8716;SDS011;4395;48.554;8.820;2023-02-03T04:43:40;1.48;;;0.90;;
8716;SDS011;4395;48.554;8.820;2023-02-03T04:45:44;1.27;;;0.77;;
8716;SDS011;4395;48.554;8.820;2023-02-03T04:47:50;1.23;;;0.90;;
8716;SDS011;4395;48.554;8.820;2023-02-03T04:49:54;1.20;;;1.13;;
8716;SDS011;4395;48.554;8.820;2023-02-03T04:51:57;1.10;;;1.10;;
8716;SDS011;4395;48.554;8.820;2023-02-03T04:54:00;1.45;;;1.30;;
8716;SDS011;4395;48.554;8.820;2023-02-03T04:56:03;2.35;;;1.77;;
8716;SDS011;4395;48.554;8.820;2023-02-03T04:58:07;1.83;;;1.42;;
8716;SDS011;4395;48.554;8.820;2023-02-03T05:00:10;3.13;;;1.90;;
8716;SDS011;4395;48.554;8.820;2023-02-03T05:02:15;4.70;;;1.38;;
8716;SDS011;4395;48.554;8.820;2023-02-03T05:04:18;5.25;;;3.00;;
8716;SDS011;4395;48.554;8.820;2023-02-03T05:06:22;1.40;;;1.30;;
8716;SDS011;4395;48.554;8.820;2023-02-03T05:08:25;1.70;;;1.33;;
8716;SDS011;4395;48.554;8.820;2023-02-03T05:10:28;2.47;;;1.33;;
8716;SDS011;4395;48.554;8.820;2023-02-03T05:12:32;1.35;;;0.88;;
8716;SDS011;4395;48.554;8.820;2023-02-03T05:14:34;1.75;;;1.60;;
8716;SDS011;4395;48.554;8.820;2023-02-03T05:16:37;3.20;;;2.85;;
8716;SDS011;4395;48.554;8.820;2023-02-03T05:18:41;2.05;;;1.70;;
8716;SDS011;4395;48.554;8.820;2023-02-03T05:20:44;1.63;;;1.40;;
8716;SDS011;4395;48.554;8.820;2023-02-03T05:22:47;5.32;;;4.25;;
8716;SDS011;4395;48.554;8.820;2023-02-03T05:24:50;3.10;;;2.28;;
8716;SDS011;4395;48.554;8.820;2023-02-03T05:26:53;4.32;;;3.22;;
8716;SDS011;4395;48.554;8.820;2023-02-03T05:28:56;4.38;;;3.30;;
8716;SDS011;4395;48.554;8.820;2023-02-03T05:30:58;2.95;;;2.45;;
8716;SDS011;4395;48.554;8.820;2023-02-03T05:33:02;3.45;;;2.08;;
8716;SDS011;4395;48.554;8.820;2023-02-03T05:35:06;3.10;;;2.33;;
8716;SDS011;4395;48.554;8.820;2023-02-03T05:37:09;1.77;;;1.67;;
8716;SDS011;4395;48.554;8.820;2023-02-03T05:39:12;1.50;;;1.27;;
8716;SDS011;4395;48.554;8.820;2023-02-03T05:41:15;1.98;;;1.77;;
8716;SDS011;4395;48.554;8.820;2023-02-03T05:43:35;2.58;;;2.00;;
8716;SDS011;4395;48.554;8.820;2023-02-03T05:45:38;1.90;;;1.80;;
8716;SDS011;4395;48.554;8.820;2023-02-03T05:47:41;2.65;;;2.15;;
8716;SDS011;4395;48.554;8.820;2023-02-03T05:49:44;1.60;;;1.48;;
8716;SDS011;4395;48.554;8.820;2023-02-03T05:51:48;1.88;;;1.00;;
8716;SDS011;4395;48.554;8.820;2023-02-03T05:53:52;1.63;;;1.30;;
8716;SDS011;4395;48.554;8.820;2023-02-03T05:55:55;1.38;;;1.25;;
8716;SDS011;4395;48.554;8.820;2023-02-03T05:57:58;0.95;;;0.77;;
8716;SDS011;4395;48.554;8.820;2023-02-03T06:00:01;1.58;;;1.00;;
8716;SDS011;4395;48.554;8.820;2023-02-03T06:02:11;0.63;;;0.63;;
8716;SDS011;4395;48.554;8.820;2023-02-03T06:04:14;0.90;;;0.77;;
8716;SDS011;4395;48.554;8.820;2023-02-03T06:06:17;1.08;;;0.90;;
8716;SDS011;4395;48.554;8.820;2023-02-03T06:08:21;4.25;;;1.90;;
8716;SDS011;4395;48.554;8.820;2023-02-03T06:10:28;1.65;;;1.25;;
8716;SDS011;4395;48.554;8.820;2023-02-03T06:12:31;1.15;;;1.15;;
8716;SDS011;4395;48.554;8.820;2023-02-03T06:14:34;1.65;;;1.55;;
8716;SDS011;4395;48.554;8.820;2023-02-03T06:16:37;1.52;;;1.42;;
8716;SDS011;4395;48.554;8.820;2023-02-03T06:18:40;2.35;;;1.65;;
8716;SDS011;4395;48.554;8.820;2023-02-03T06:20:43;1.88;;;1.73;;
8716;SDS011;4395;48.554;8.820;2023-02-03T06:22:45;1.60;;;1.30;;
8716;SDS011;4395;48.554;8.820;2023-02-03T06:24:50;1.67;;;1.58;;
8716;SDS011;4395;48.554;8.820;2023-02-03T06:26:52;2.83;;;2.00;;
8716;SDS011;4395;48.554;8.820;2023-02-03T06:28:55;3.28;;;1.90;;
8716;SDS011;4395;48.554;8.820;2023-02-03T06:30:58;4.07;;;2.80;;
8716;SDS011;4395;48.554;8.820;2023-02-03T06:33:01;4.22;;;3.53;;
8716;SDS011;4395;48.554;8.820;2023-02-03T06:35:04;2.75;;;2.10;;
8716;SDS011;4395;48.554;8.820;2023-02-03T06:37:07;0.90;;;0.90;;
8716;SDS011;4395;48.554;8.820;2023-02-03T06:39:09;2.00;;;1.08;;
8716;SDS011;4395;48.554;8.820;2023-02-03T06:41:14;1.90;;;1.50;;
8716;SDS011;4395;48.554;8.820;2023-02-03T06:43:17;1.77;;;1.60;;
8716;SDS011;4395;48.554;8.820;2023-02-03T06:45:20;1.88;;;1.70;;
8716;SDS011;4395;48.554;8.820;2023-02-03T06:47:24;1.77;;;1.25;;
8716;SDS011;4395;48.554;8.820;2023-02-03T06:49:27;1.40;;;1.27;;
8716;SDS011;4395;48.554;8.820;2023-02-03T06:51:30;2.00;;;1.90;;
8716;SDS011;4395;48.554;8.820;2023-02-03T06:53:33;1.48;;;1.33;;
8716;SDS011;4395;48.554;8.820;2023-02-03T06:55:36;3.05;;;1.90;;
8716;SDS011;4395;48.554;8.820;2023-02-03T06:57:44;2.38;;;1.42;;
8716;SDS011;4395;48.554;8.820;2023-02-03T06:59:47;2.92;;;2.60;;
8716;SDS011;4395;48.554;8.820;2023-02-03T07:01:50;3.22;;;2.40;;
8716;SDS011;4395;48.554;8.820;2023-02-03T07:03:53;4.97;;;4.07;;
8716;SDS011;4395;48.554;8.820;2023-02-03T07:05:58;3.38;;;3.00;;
8716;SDS011;4395;48.554;8.820;2023-02-03T07:08:01;3.08;;;2.42;;
8716;SDS011;4395;48.554;8.820;2023-02-03T07:10:04;2.92;;;2.60;;
8716;SDS011;4395;48.554;8.820;2023-02-03T07:12:08;3.10;;;2.25;;
8716;SDS011;4395;48.554;8.820;2023-02-03T07:14:12;3.10;;;2.65;;
8716;SDS011;4395;48.554;8.820;2023-02-03T07:16:15;6.10;;;4.72;;
8716;SDS011;4395;48.554;8.820;2023-02-03T07:18:18;3.25;;;2.78;;
8716;SDS011;4395;48.554;8.820;2023-02-03T07:20:44;1.95;;;1.85;;
8716;SDS011;4395;48.554;8.820;2023-02-03T07:22:51;4.32;;;2.50;;
8716;SDS011;4395;48.554;8.820;2023-02-03T07:24:54;3.38;;;2.88;;
8716;SDS011;4395;48.554;8.820;2023-02-03T07:26:57;3.17;;;1.92;;
8716;SDS011;4395;48.554;8.820;2023-02-03T07:28:59;3.03;;;2.50;;
8716;SDS011;4395;48.554;8.820;2023-02-03T07:31:04;5.47;;;3.38;;
8716;SDS011;4395;48.554;8.820;2023-02-03T07:33:08;5.75;;;3.63;;
8716;SDS011;4395;48.554;8.820;2023-02-03T07:35:11;7.35;;;6.32;;
8716;SDS011;4395;48.554;8.820;2023-02-03T07:37:14;4.63;;;3.83;;
8716;SDS011;4395;48.554;8.820;2023-02-03T07:39:16;2.80;;;2.47;;
8716;SDS011;4395;48.554;8.820;2023-02-03T07:41:19;3.90;;;2.85;;
8716;SDS011;4395;48.554;8.820;2023-02-03T07:43:22;3.15;;;2.17;;
8716;SDS011;4395;48.554;8.820;2023-02-03T07:45:26;2.45;;;1.95;;
8716;SDS011;4395;48.554;8.820;2023-02-03T07:47:30;3.78;;;2.40;;
8716;SDS011;4395;48.554;8.820;2023-02-03T07:49:33;2.83;;;2.28;;
8716;SDS011;4395;48.554;8.820;2023-02-03T07:51:35;2.92;;;2.22;;
8716;SDS011;4395;48.554;8.820;2023-02-03T07:53:38;2.08;;;1.98;;
8716;SDS011;4395;48.554;8.820;2023-02-03T07:55:41;2.13;;;1.92;;
8716;SDS011;4395;48.554;8.820;2023-02-03T07:57:44;1.98;;;1.80;;
8716;SDS011;4395;48.554;8.820;2023-02-03T07:59:47;2.50;;;2.28;;
8716;SDS011;4395;48.554;8.820;2023-02-03T08:01:49;2.35;;;2.10;;
8716;SDS011;4395;48.554;8.820;2023-02-03T08:03:57;2.92;;;1.80;;
8716;SDS011;4395;48.554;8.820;2023-02-03T08:06:02;3.35;;;2.13;;
8716;SDS011;4395;48.554;8.820;2023-02-03T08:08:05;5.88;;;2.40;;
8716;SDS011;4395;48.554;8.820;2023-02-03T08:10:09;4.22;;;2.40;;
8716;SDS011;4395;48.554;8.820;2023-02-03T08:12:13;4.80;;;2.92;;
8716;SDS011;4395;48.554;8.820;2023-02-03T08:14:16;2.78;;;2.55;;
8716;SDS011;4395;48.554;8.820;2023-02-03T08:16:18;3.03;;;2.72;;
8716;SDS011;4395;48.554;8.820;2023-02-03T08:18:21;3.90;;;3.10;;
8716;SDS011;4395;48.554;8.820;2023-02-03T08:20:25;2.95;;;2.65;;
8716;SDS011;4395;48.554;8.820;2023-02-03T08:22:28;2.47;;;2.25;;
8716;SDS011;4395;48.554;8.820;2023-02-03T08:24:31;2.35;;;2.08;;
8716;SDS011;4395;48.554;8.820;2023-02-03T08:26:34;2.15;;;1.60;;
8716;SDS011;4395;48.554;8.820;2023-02-03T08:28:37;2.28;;;1.95;;
8716;SDS011;4395;48.554;8.820;2023-02-03T08:30:40;2.60;;;1.58;;
8716;SDS011;4395;48.554;8.820;2023-02-03T08:32:42;2.10;;;1.90;;
8716;SDS011;4395;48.554;8.820;2023-02-03T08:34:45;2.65;;;2.40;;
8716;SDS011;4395;48.554;8.820;2023-02-03T08:36:50;3.28;;;2.22;;
8716;SDS011;4395;48.554;8.820;2023-02-03T08:38:53;2.42;;;2.15;;
8716;SDS011;4395;48.554;8.820;2023-02-03T08:40:55;3.38;;;2.55;;
8716;SDS011;4395;48.554;8.820;2023-02-03T08:42:58;2.38;;;2.17;;
8716;SDS011;4395;48.554;8.820;2023-02-03T08:45:01;2.70;;;2.20;;
8716;SDS011;4395;48.554;8.820;2023-02-03T08:47:06;2.80;;;2.38;;
8716;SDS011;4395;48.554;8.820;2023-02-03T08:49:09;3.00;;;2.30;;
8716;SDS011;4395;48.554;8.820;2023-02-03T08:51:13;6.45;;;2.22;;
8716;SDS011;4395;48.554;8.820;2023-02-03T08:53:19;2.25;;;2.03;;
8716;SDS011;4395;48.554;8.820;2023-02-03T08:55:21;3.60;;;3.30;;
8716;SDS011;4395;48.554;8.820;2023-02-03T08:57:24;2.88;;;2.60;;
8716;SDS011;4395;48.554;8.820;2023-02-03T08:59:27;3.85;;;2.20;;
8716;SDS011;4395;48.554;8.820;2023-02-03T09:01:30;1.70;;;1.60;;
8716;SDS011;4395;48.554;8.820;2023-02-03T09:03:33;2.03;;;1.88;;
8716;SDS011;4395;48.554;8.820;2023-02-03T09:05:36;2.30;;;2.10;;
8716;SDS011;4395;48.554;8.820;2023-02-03T09:07:38;2.08;;;1.75;;
8716;SDS011;4395;48.554;8.820;2023-02-03T09:09:43;2.58;;;1.77;;
8716;SDS011;4395;48.554;8.820;2023-02-03T09:11:45;2.25;;;1.67;;
8716;SDS011;4395;48.554;8.820;2023-02-03T09:13:48;2.42;;;1.90;;
8716;SDS011;4395;48.554;8.820;2023-02-03T09:15:52;1.92;;;1.58;;
8716;SDS011;4395;48.554;8.820;2023-02-03T09:17:54;2.47;;;1.80;;
8716;SDS011;4395;48.554;8.820;2023-02-03T09:19:58;1.70;;;1.60;;
8716;SDS011;4395;48.554;8.820;2023-02-03T09:22:01;1.05;;;0.95;;
8716;SDS011;4395;48.554;8.820;2023-02-03T09:24:04;2.67;;;1.80;;
8716;SDS011;4395;48.554;8.820;2023-02-03T09:26:09;1.95;;;1.58;;
8716;SDS011;4395;48.554;8.820;2023-02-03T09:28:13;1.45;;;1.35;;
8716;SDS011;4395;48.554;8.820;2023-02-03T09:30:16;1.20;;;1.10;;
8716;SDS011;4395;48.554;8.820;2023-02-03T09:32:19;1.30;;;1.20;;
8716;SDS011;4395;48.554;8.820;2023-02-03T09:34:22;1.67;;;1.25;;
8716;SDS011;4395;48.554;8.820;2023-02-03T09:36:25;1.10;;;0.98;;
8716;SDS011;4395;48.554;8.820;2023-02-03T09:38:27;1.25;;;1.15;;
8716;SDS011;4395;48.554;8.820;2023-02-03T09:40:31;1.90;;;1.27;;
8716;SDS011;4395;48.554;8.820;2023-02-03T09:42:43;1.20;;;1.10;;
8716;SDS011;4395;48.554;8.820;2023-02-03T09:45:13;1.23;;;1.13;;
8716;SDS011;4395;48.554;8.820;2023-02-03T09:47:23;1.30;;;0.90;;
8716;SDS011;4395;48.554;8.820;2023-02-03T09:49:32;1.15;;;1.10;;
8716;SDS011;4395;48.554;8.820;2023-02-03T09:51:41;1.58;;;1.13;;
8716;SDS011;4395;48.554;8.820;2023-02-03T09:53:47;1.17;;;1.08;;
8716;SDS011;4395;48.554;8.820;2023-02-03T09:55:56;1.08;;;1.02;;
8716;SDS011;4395;48.554;8.820;2023-02-03T09:58:01;1.17;;;0.88;;
8716;SDS011;4395;48.554;8.820;2023-02-03T10:00:12;1.10;;;1.00;;
8716;SDS011;4395;48.554;8.820;2023-02-03T10:02:23;1.35;;;1.17;;
8716;SDS011;4395;48.554;8.820;2023-02-03T10:04:34;1.17;;;1.00;;
8716;SDS011;4395;48.554;8.820;2023-02-03T10:06:41;0.63;;;0.50;;
8716;SDS011;4395;48.554;8.820;2023-02-03T10:08:53;1.30;;;1.20;;
8716;SDS011;4395;48.554;8.820;2023-02-03T10:11:05;0.73;;;0.70;;
8716;SDS011;4395;48.554;8.820;2023-02-03T10:13:26;0.57;;;0.50;;
8716;SDS011;4395;48.554;8.820;2023-02-03T10:15:51;1.02;;;0.63;;
8716;SDS011;4395;48.554;8.820;2023-02-03T10:18:03;0.60;;;0.50;;
8716;SDS011;4395;48.554;8.820;2023-02-03T10:20:10;0.80;;;0.80;;
8716;SDS011;4395;48.554;8.820;2023-02-03T10:22:18;2.30;;;0.47;;
8716;SDS011;4395;48.554;8.820;2023-02-03T10:24:25;1.00;;;0.52;;
8716;SDS011;4395;48.554;8.820;2023-02-03T10:26:31;0.50;;;0.50;;
8716;SDS011;4395;48.554;8.820;2023-02-03T10:28:36;2.58;;;0.85;;
8716;SDS011;4395;48.554;8.820;2023-02-03T10:30:44;1.75;;;0.70;;
8716;SDS011;4395;48.554;8.820;2023-02-03T10:32:50;0.60;;;0.60;;
8716;SDS011;4395;48.554;8.820;2023-02-03T10:34:56;0.80;;;0.80;;
8716;SDS011;4395;48.554;8.820;2023-02-03T10:37:00;1.17;;;0.88;;
8716;SDS011;4395;48.554;8.820;2023-02-03T10:39:10;1.30;;;1.20;;
8716;SDS011;4395;48.554;8.820;2023-02-03T10:41:21;0.95;;;0.90;;
8716;SDS011;4395;48.554;8.820;2023-02-03T10:43:25;1.08;;;0.65;;
8716;SDS011;4395;48.554;8.820;2023-02-03T10:45:56;0.60;;;0.32;;
8716;SDS011;4395;48.554;8.820;2023-02-03T10:48:00;0.82;;;0.60;;
8716;SDS011;4395;48.554;8.820;2023-02-03T10:50:05;1.38;;;0.90;;
8716;SDS011;4395;48.554;8.820;2023-02-03T10:52:23;2.13;;;1.45;;
8716;SDS011;4395;48.554;8.820;2023-02-03T10:54:30;1.85;;;1.25;;
8716;SDS011;4395;48.554;8.820;2023-02-03T10:56:34;1.73;;;0.52;;
8716;SDS011;4395;48.554;8.820;2023-02-03T10:58:45;1.70;;;1.00;;
8716;SDS011;4395;48.554;8.820;2023-02-03T11:00:49;1.80;;;1.17;;
8716;SDS011;4395;48.554;8.820;2023-02-03T11:03:00;1.02;;;0.88;;
8716;SDS011;4395;48.554;8.820;2023-02-03T11:05:07;0.73;;;0.43;;
8716;SDS011;4395;48.554;8.820;2023-02-03T11:07:22;1.23;;;0.55;;
8716;SDS011;4395;48.554;8.820;2023-02-03T11:09:28;0.98;;;0.80;;
8716;SDS011;4395;48.554;8.820;2023-02-03T11:11:34;1.67;;;1.17;;
8716;SDS011;4395;48.554;8.820;2023-02-03T11:13:41;1.88;;;0.73;;
8716;SDS011;4395;48.554;8.820;2023-02-03T11:15:54;1.25;;;0.65;;
8716;SDS011;4395;48.554;8.820;2023-02-03T11:18:02;1.40;;;0.70;;
8716;SDS011;4395;48.554;8.820;2023-02-03T11:20:11;0.52;;;0.40;;
8716;SDS011;4395;48.554;8.820;2023-02-03T11:24:38;0.70;;;0.60;;
8716;SDS011;4395;48.554;8.820;2023-02-03T11:26:44;0.47;;;0.47;;
8716;SDS011;4395;48.554;8.820;2023-02-03T11:28:50;0.52;;;0.52;;
8716;SDS011;4395;48.554;8.820;2023-02-03T11:30:56;1.35;;;0.60;;
8716;SDS011;4395;48.554;8.820;2023-02-03T11:32:59;0.57;;;0.35;;
8716;SDS011;4395;48.554;8.820;2023-02-03T11:35:13;2.83;;;0.65;;
8716;SDS011;4395;48.554;8.820;2023-02-03T11:37:24;7.78;;;4.43;;
8716;SDS011;4395;48.554;8.820;2023-02-03T11:39:28;2.42;;;1.65;;
8716;SDS011;4395;48.554;8.820;2023-02-03T11:41:36;6.80;;;4.00;;
8716;SDS011;4395;48.554;8.820;2023-02-03T11:43:40;5.75;;;3.97;;
8716;SDS011;4395;48.554;8.820;2023-02-03T11:45:43;15.50;;;8.43;;
8716;SDS011;4395;48.554;8.820;2023-02-03T11:47:48;11.35;;;7.20;;
8716;SDS011;4395;48.554;8.820;2023-02-03T11:50:04;7.78;;;4.07;;
8716;SDS011;4395;48.554;8.820;2023-02-03T11:54:53;0.75;;;0.60;;
8716;SDS011;4395;48.554;8.820;2023-02-03T11:57:16;2.92;;;2.25;;
8716;SDS011;4395;48.554;8.820;2023-02-03T11:59:30;1.08;;;1.05;;
8716;SDS011;4395;48.554;8.820;2023-02-03T12:01:45;2.63;;;1.90;;
8716;SDS011;4395;48.554;8.820;2023-02-03T12:04:17;5.25;;;4.75;;
8716;SDS011;4395;48.554;8.820;2023-02-03T12:06:40;0.98;;;0.93;;
8716;SDS011;4395;48.554;8.820;2023-02-03T12:08:58;0.68;;;0.68;;
8716;SDS011;4395;48.554;8.820;2023-02-03T12:11:11;0.70;;;0.65;;
8716;SDS011;4395;48.554;8.820;2023-02-03T12:13:30;3.42;;;2.35;;
8716;SDS011;4395;48.554;8.820;2023-02-03T12:15:52;1.67;;;1.25;;
8716;SDS011;4395;48.554;8.820;2023-02-03T12:18:14;0.60;;;0.60;;
8716;SDS011;4395;48.554;8.820;2023-02-03T12:20:29;1.17;;;0.80;;
8716;SDS011;4395;48.554;8.820;2023-02-03T12:22:44;1.30;;;1.20;;
8716;SDS011;4395;48.554;8.820;2023-02-03T12:24:57;1.60;;;0.85;;
8716;SDS011;4395;48.554;8.820;2023-02-03T12:27:09;1.15;;;1.00;;
8716;SDS011;4395;48.554;8.820;2023-02-03T12:29:24;0.60;;;0.60;;
8716;SDS011;4395;48.554;8.820;2023-02-03T12:31:34;0.32;;;0.32;;
8716;SDS011;4395;48.554;8.820;2023-02-03T12:33:41;0.82;;;0.60;;
8716;SDS011;4395;48.554;8.820;2023-02-03T12:35:49;1.73;;;1.13;;
8716;SDS011;4395;48.554;8.820;2023-02-03T12:38:00;1.05;;;0.68;;
8716;SDS011;4395;48.554;8.820;2023-02-03T12:40:11;1.40;;;0.90;;
8716;SDS011;4395;48.554;8.820;2023-02-03T12:42:18;0.82;;;0.50;;
8716;SDS011;4395;48.554;8.820;2023-02-03T12:44:28;1.83;;;0.73;;
8716;SDS011;4395;48.554;8.820;2023-02-03T12:46:38;0.52;;;0.52;;
8716;SDS011;4395;48.554;8.820;2023-02-03T12:48:47;2.17;;;0.70;;
8716;SDS011;4395;48.554;8.820;2023-02-03T12:50:58;1.00;;;0.80;;
8716;SDS011;4395;48.554;8.820;2023-02-03T12:53:10;0.73;;;0.60;;
8716;SDS011;4395;48.554;8.820;2023-02-03T12:55:19;1.42;;;1.33;;
8716;SDS011;4395;48.554;8.820;2023-02-03T12:57:29;1.58;;;0.77;;
8716;SDS011;4395;48.554;8.820;2023-02-03T12:59:38;0.40;;;0.38;;
8716;SDS011;4395;48.554;8.820;2023-02-03T13:01:44;1.40;;;0.60;;
8716;SDS011;4395;48.554;8.820;2023-02-03T13:03:53;2.08;;;1.23;;
8716;SDS011;4395;48.554;8.820;2023-02-03T13:06:03;0.68;;;0.60;;
8716;SDS011;4395;48.554;8.820;2023-02-03T13:08:15;1.20;;;0.90;;
8716;SDS011;4395;48.554;8.820;2023-02-03T13:10:25;0.38;;;0.38;;
8716;SDS011;4395;48.554;8.820;2023-02-03T13:12:34;0.70;;;0.70;;
8716;SDS011;4395;48.554;8.820;2023-02-03T13:14:43;0.88;;;0.70;;